Hlavní strana
METAR-TAF:

METAR-TAF

Letiště :

Zeltweg, Rakousko

zeměpisná šířka: 47-12N, zeměpisná délka: 014-45E, výška: 677 m

Aktuální stav počasí

Zpráva byla vytvořena před 34 minutami, v 15:20 UTC
Východoseverovýchodní vítr 5 kt
Teplota 6°C
Vlhkost vzduchu 65%
Tlak 1029 hPa

METAR: LOXZ 161520Z 07005KT 20KM FEW040SC BKN045SC 06/M00 Q1029 NOSIG

Čas: 16:54 (15:54 UTC)

Předpověď počasí

Zpráva byla vytvořena před 4 hodinami a 39 minutami, v 11:15 UTC
Předpověď platná od 16 v 12 UTC do 16 v 21 UTC
vítr z různých směrů 3 kt
Viditelnost 10 km a více
Skoro jasno ve výšce 2000 ft
Oblačno až skoro zataženo ve výšce 4500 ft
Dočasný
od 16 v 12 UTC do 16 v 17 UTC
Východní vítr 7 kt
Skoro jasno ve výšce 3000 ft
Polojasno ve výšce 5000 ft

TAF: LOXZ 161115Z 1612/1621 VRB03KT 9999 FEW020 BKN045 TEMPO 1612/1617 10007KT FEW030 SCT050

Stav a předpovědi počasí z více než 4 000 letišť (zprávy METAR a TAF).

Červené a žluté tečky na mapě představují dostupné meteorologické stanice.

Když kurzor umístíte na tečku, zobrazí se název stanice.

Pak kliknutím zobrazíte stav a předpověď počasí.

Chcete-li změnit mapu, kliknutím na zelené tlačítko se znaménkem +mapu přiblížíte, kliknutím na zelené tlačítko se znaménkem – mapu oddálíte a kliknutím na zelené šipky přejdete na sousední mapy.


METAR-TAF: